sensor_id;sensor_type;location;lat;lon;timestamp;P1;durP1;ratioP1;P2;durP2;ratioP2
64633;SDS011;51043;52.406;9.690;2023-09-30T00:01:22;16.67;;;6.10;;
64633;SDS011;51043;52.406;9.690;2023-09-30T00:03:52;14.37;;;4.60;;
64633;SDS011;51043;52.406;9.690;2023-09-30T00:06:22;18.27;;;5.50;;
64633;SDS011;51043;52.406;9.690;2023-09-30T00:08:51;19.50;;;5.10;;
64633;SDS011;51043;52.406;9.690;2023-09-30T00:11:22;18.20;;;5.47;;
64633;SDS011;51043;52.406;9.690;2023-09-30T00:13:52;20.20;;;5.67;;
64633;SDS011;51043;52.406;9.690;2023-09-30T00:16:21;18.80;;;5.43;;
64633;SDS011;51043;52.406;9.690;2023-09-30T00:18:51;24.30;;;5.63;;
64633;SDS011;51043;52.406;9.690;2023-09-30T00:21:24;14.70;;;4.90;;
64633;SDS011;51043;52.406;9.690;2023-09-30T00:23:53;20.93;;;5.10;;
64633;SDS011;51043;52.406;9.690;2023-09-30T00:26:23;17.00;;;5.40;;
64633;SDS011;51043;52.406;9.690;2023-09-30T00:28:57;18.20;;;5.70;;
64633;SDS011;51043;52.406;9.690;2023-09-30T00:31:28;25.27;;;5.67;;
64633;SDS011;51043;52.406;9.690;2023-09-30T00:33:57;18.73;;;5.37;;
64633;SDS011;51043;52.406;9.690;2023-09-30T00:36:26;26.03;;;5.80;;
64633;SDS011;51043;52.406;9.690;2023-09-30T00:38:56;15.27;;;5.30;;
64633;SDS011;51043;52.406;9.690;2023-09-30T00:41:25;20.30;;;6.07;;
64633;SDS011;51043;52.406;9.690;2023-09-30T00:43:53;20.60;;;5.57;;
64633;SDS011;51043;52.406;9.690;2023-09-30T00:46:25;23.77;;;5.80;;
64633;SDS011;51043;52.406;9.690;2023-09-30T00:48:58;22.43;;;5.93;;
64633;SDS011;51043;52.406;9.690;2023-09-30T00:51:33;19.03;;;5.07;;
64633;SDS011;51043;52.406;9.690;2023-09-30T00:54:03;17.23;;;5.33;;
64633;SDS011;51043;52.406;9.690;2023-09-30T00:56:32;17.83;;;6.47;;
64633;SDS011;51043;52.406;9.690;2023-09-30T00:59:03;14.87;;;5.33;;
64633;SDS011;51043;52.406;9.690;2023-09-30T01:01:34;21.83;;;6.03;;
64633;SDS011;51043;52.406;9.690;2023-09-30T01:04:06;16.17;;;5.60;;
64633;SDS011;51043;52.406;9.690;2023-09-30T01:06:44;19.87;;;6.60;;
64633;SDS011;51043;52.406;9.690;2023-09-30T01:09:14;19.07;;;5.73;;
64633;SDS011;51043;52.406;9.690;2023-09-30T01:11:42;22.27;;;6.10;;
64633;SDS011;51043;52.406;9.690;2023-09-30T01:14:25;23.90;;;5.83;;
64633;SDS011;51043;52.406;9.690;2023-09-30T01:16:54;22.23;;;5.57;;
64633;SDS011;51043;52.406;9.690;2023-09-30T01:19:24;20.67;;;5.77;;
64633;SDS011;51043;52.406;9.690;2023-09-30T01:21:54;22.30;;;5.97;;
64633;SDS011;51043;52.406;9.690;2023-09-30T01:24:27;20.67;;;6.03;;
64633;SDS011;51043;52.406;9.690;2023-09-30T01:26:55;19.00;;;6.10;;
64633;SDS011;51043;52.406;9.690;2023-09-30T01:29:25;19.87;;;5.87;;
64633;SDS011;51043;52.406;9.690;2023-09-30T01:31:55;25.30;;;6.47;;
64633;SDS011;51043;52.406;9.690;2023-09-30T01:34:23;19.60;;;5.60;;
64633;SDS011;51043;52.406;9.690;2023-09-30T01:36:52;24.13;;;5.93;;
64633;SDS011;51043;52.406;9.690;2023-09-30T01:39:21;19.30;;;5.83;;
64633;SDS011;51043;52.406;9.690;2023-09-30T01:41:51;18.93;;;6.33;;
64633;SDS011;51043;52.406;9.690;2023-09-30T01:44:20;23.03;;;6.40;;
64633;SDS011;51043;52.406;9.690;2023-09-30T01:46:48;23.27;;;6.47;;
64633;SDS011;51043;52.406;9.690;2023-09-30T01:49:19;21.00;;;5.40;;
64633;SDS011;51043;52.406;9.690;2023-09-30T01:51:50;21.13;;;5.57;;
64633;SDS011;51043;52.406;9.690;2023-09-30T01:54:19;18.40;;;5.10;;
64633;SDS011;51043;52.406;9.690;2023-09-30T01:56:52;17.57;;;5.73;;
64633;SDS011;51043;52.406;9.690;2023-09-30T01:59:22;24.93;;;6.20;;
64633;SDS011;51043;52.406;9.690;2023-09-30T02:01:51;26.73;;;6.43;;
64633;SDS011;51043;52.406;9.690;2023-09-30T02:04:22;25.30;;;5.63;;
64633;SDS011;51043;52.406;9.690;2023-09-30T02:06:51;19.90;;;5.67;;
64633;SDS011;51043;52.406;9.690;2023-09-30T02:09:23;26.57;;;6.50;;
64633;SDS011;51043;52.406;9.690;2023-09-30T02:11:52;23.63;;;5.77;;
64633;SDS011;51043;52.406;9.690;2023-09-30T02:14:21;20.83;;;5.40;;
64633;SDS011;51043;52.406;9.690;2023-09-30T02:16:59;21.07;;;5.07;;
64633;SDS011;51043;52.406;9.690;2023-09-30T02:19:30;22.17;;;5.90;;
64633;SDS011;51043;52.406;9.690;2023-09-30T02:22:00;25.10;;;5.67;;
64633;SDS011;51043;52.406;9.690;2023-09-30T02:24:30;19.63;;;5.10;;
64633;SDS011;51043;52.406;9.690;2023-09-30T02:26:59;26.50;;;5.77;;
64633;SDS011;51043;52.406;9.690;2023-09-30T02:29:27;19.53;;;5.70;;
64633;SDS011;51043;52.406;9.690;2023-09-30T02:31:56;26.30;;;6.40;;
64633;SDS011;51043;52.406;9.690;2023-09-30T02:34:27;21.80;;;4.90;;
64633;SDS011;51043;52.406;9.690;2023-09-30T02:37:02;25.40;;;5.70;;
64633;SDS011;51043;52.406;9.690;2023-09-30T02:39:33;22.60;;;5.93;;
64633;SDS011;51043;52.406;9.690;2023-09-30T02:42:03;24.03;;;5.33;;
64633;SDS011;51043;52.406;9.690;2023-09-30T02:44:32;20.77;;;6.70;;
64633;SDS011;51043;52.406;9.690;2023-09-30T02:47:02;26.17;;;5.37;;
64633;SDS011;51043;52.406;9.690;2023-09-30T02:49:32;26.40;;;5.87;;
64633;SDS011;51043;52.406;9.690;2023-09-30T02:52:08;22.73;;;5.07;;
64633;SDS011;51043;52.406;9.690;2023-09-30T02:54:38;26.50;;;5.83;;
64633;SDS011;51043;52.406;9.690;2023-09-30T02:57:09;27.73;;;6.57;;
64633;SDS011;51043;52.406;9.690;2023-09-30T02:59:38;22.10;;;5.50;;
64633;SDS011;51043;52.406;9.690;2023-09-30T03:02:07;28.13;;;5.57;;
64633;SDS011;51043;52.406;9.690;2023-09-30T03:04:36;18.47;;;5.23;;
64633;SDS011;51043;52.406;9.690;2023-09-30T03:07:06;23.47;;;6.10;;
64633;SDS011;51043;52.406;9.690;2023-09-30T03:09:36;27.27;;;6.40;;
64633;SDS011;51043;52.406;9.690;2023-09-30T03:12:06;19.70;;;5.00;;
64633;SDS011;51043;52.406;9.690;2023-09-30T03:14:37;25.30;;;6.23;;
64633;SDS011;51043;52.406;9.690;2023-09-30T03:17:11;21.47;;;6.37;;
64633;SDS011;51043;52.406;9.690;2023-09-30T03:19:42;21.03;;;6.07;;
64633;SDS011;51043;52.406;9.690;2023-09-30T03:22:13;22.47;;;6.00;;
64633;SDS011;51043;52.406;9.690;2023-09-30T03:24:45;19.00;;;5.90;;
64633;SDS011;51043;52.406;9.690;2023-09-30T03:27:17;26.03;;;5.83;;
64633;SDS011;51043;52.406;9.690;2023-09-30T03:29:47;23.53;;;6.20;;
64633;SDS011;51043;52.406;9.690;2023-09-30T03:32:19;26.73;;;5.90;;
64633;SDS011;51043;52.406;9.690;2023-09-30T03:34:47;27.40;;;5.97;;
64633;SDS011;51043;52.406;9.690;2023-09-30T03:37:19;23.43;;;6.50;;
64633;SDS011;51043;52.406;9.690;2023-09-30T03:39:47;21.13;;;5.70;;
64633;SDS011;51043;52.406;9.690;2023-09-30T03:42:19;18.53;;;5.33;;
64633;SDS011;51043;52.406;9.690;2023-09-30T03:44:48;26.90;;;6.23;;
64633;SDS011;51043;52.406;9.690;2023-09-30T03:47:18;24.70;;;5.67;;
64633;SDS011;51043;52.406;9.690;2023-09-30T03:49:49;23.37;;;5.77;;
64633;SDS011;51043;52.406;9.690;2023-09-30T03:52:24;22.77;;;6.13;;
64633;SDS011;51043;52.406;9.690;2023-09-30T03:54:54;17.17;;;5.60;;
64633;SDS011;51043;52.406;9.690;2023-09-30T03:57:26;27.37;;;6.03;;
64633;SDS011;51043;52.406;9.690;2023-09-30T03:59:55;18.37;;;5.10;;
64633;SDS011;51043;52.406;9.690;2023-09-30T04:02:23;24.80;;;5.47;;
64633;SDS011;51043;52.406;9.690;2023-09-30T04:04:52;21.57;;;5.53;;
64633;SDS011;51043;52.406;9.690;2023-09-30T04:07:23;24.87;;;6.17;;
64633;SDS011;51043;52.406;9.690;2023-09-30T04:09:59;22.83;;;5.87;;
64633;SDS011;51043;52.406;9.690;2023-09-30T04:12:29;28.83;;;6.00;;
64633;SDS011;51043;52.406;9.690;2023-09-30T04:14:59;23.60;;;6.30;;
64633;SDS011;51043;52.406;9.690;2023-09-30T04:17:27;23.43;;;5.60;;
64633;SDS011;51043;52.406;9.690;2023-09-30T04:19:56;27.87;;;5.70;;
64633;SDS011;51043;52.406;9.690;2023-09-30T04:22:25;20.47;;;5.53;;
64633;SDS011;51043;52.406;9.690;2023-09-30T04:24:58;24.67;;;4.97;;
64633;SDS011;51043;52.406;9.690;2023-09-30T04:27:33;27.43;;;5.87;;
64633;SDS011;51043;52.406;9.690;2023-09-30T04:30:02;21.17;;;5.37;;
64633;SDS011;51043;52.406;9.690;2023-09-30T04:32:35;26.20;;;5.37;;
64633;SDS011;51043;52.406;9.690;2023-09-30T04:35:05;20.07;;;4.67;;
64633;SDS011;51043;52.406;9.690;2023-09-30T04:37:34;20.50;;;5.20;;
64633;SDS011;51043;52.406;9.690;2023-09-30T04:40:03;22.00;;;5.73;;
64633;SDS011;51043;52.406;9.690;2023-09-30T04:42:38;19.70;;;5.57;;
64633;SDS011;51043;52.406;9.690;2023-09-30T04:45:07;22.67;;;5.13;;
64633;SDS011;51043;52.406;9.690;2023-09-30T04:47:37;23.83;;;6.07;;
64633;SDS011;51043;52.406;9.690;2023-09-30T04:50:06;25.97;;;5.63;;
64633;SDS011;51043;52.406;9.690;2023-09-30T04:52:36;30.13;;;5.90;;
64633;SDS011;51043;52.406;9.690;2023-09-30T04:55:08;24.13;;;5.57;;
64633;SDS011;51043;52.406;9.690;2023-09-30T04:57:40;23.93;;;5.87;;
64633;SDS011;51043;52.406;9.690;2023-09-30T05:00:15;19.27;;;5.30;;
64633;SDS011;51043;52.406;9.690;2023-09-30T05:02:49;21.27;;;5.43;;
64633;SDS011;51043;52.406;9.690;2023-09-30T05:05:19;18.87;;;5.07;;
64633;SDS011;51043;52.406;9.690;2023-09-30T05:07:47;31.00;;;5.57;;
64633;SDS011;51043;52.406;9.690;2023-09-30T05:10:16;18.87;;;5.53;;
64633;SDS011;51043;52.406;9.690;2023-09-30T05:12:48;20.17;;;5.47;;
64633;SDS011;51043;52.406;9.690;2023-09-30T05:15:23;18.67;;;5.40;;
64633;SDS011;51043;52.406;9.690;2023-09-30T05:17:52;22.67;;;5.87;;
64633;SDS011;51043;52.406;9.690;2023-09-30T05:20:21;20.73;;;6.13;;
64633;SDS011;51043;52.406;9.690;2023-09-30T05:22:53;23.67;;;5.10;;
64633;SDS011;51043;52.406;9.690;2023-09-30T05:25:21;17.97;;;4.97;;
64633;SDS011;51043;52.406;9.690;2023-09-30T05:27:54;19.70;;;5.40;;
64633;SDS011;51043;52.406;9.690;2023-09-30T05:30:26;24.27;;;5.10;;
64633;SDS011;51043;52.406;9.690;2023-09-30T05:32:54;23.57;;;6.03;;
64633;SDS011;51043;52.406;9.690;2023-09-30T05:35:23;23.10;;;5.17;;
64633;SDS011;51043;52.406;9.690;2023-09-30T05:37:51;25.53;;;5.83;;
64633;SDS011;51043;52.406;9.690;2023-09-30T05:40:20;19.30;;;5.13;;
64633;SDS011;51043;52.406;9.690;2023-09-30T05:42:51;22.63;;;5.50;;
64633;SDS011;51043;52.406;9.690;2023-09-30T05:45:24;19.77;;;5.13;;
64633;SDS011;51043;52.406;9.690;2023-09-30T05:47:54;25.13;;;5.17;;
64633;SDS011;51043;52.406;9.690;2023-09-30T05:50:24;23.90;;;5.30;;
64633;SDS011;51043;52.406;9.690;2023-09-30T05:52:53;19.23;;;4.70;;
64633;SDS011;51043;52.406;9.690;2023-09-30T05:55:22;25.63;;;6.03;;
64633;SDS011;51043;52.406;9.690;2023-09-30T05:57:58;22.53;;;5.23;;
64633;SDS011;51043;52.406;9.690;2023-09-30T06:00:27;23.47;;;5.53;;
64633;SDS011;51043;52.406;9.690;2023-09-30T06:02:57;24.10;;;4.90;;
64633;SDS011;51043;52.406;9.690;2023-09-30T06:05:27;24.20;;;5.77;;
64633;SDS011;51043;52.406;9.690;2023-09-30T06:07:57;18.33;;;4.67;;
64633;SDS011;51043;52.406;9.690;2023-09-30T06:10:30;15.40;;;4.40;;
64633;SDS011;51043;52.406;9.690;2023-09-30T06:13:09;22.83;;;5.83;;
64633;SDS011;51043;52.406;9.690;2023-09-30T06:15:38;19.90;;;5.10;;
64633;SDS011;51043;52.406;9.690;2023-09-30T06:18:08;23.53;;;4.83;;
64633;SDS011;51043;52.406;9.690;2023-09-30T06:20:42;18.57;;;5.10;;
64633;SDS011;51043;52.406;9.690;2023-09-30T06:23:13;16.87;;;5.00;;
64633;SDS011;51043;52.406;9.690;2023-09-30T06:25:42;16.93;;;4.40;;
64633;SDS011;51043;52.406;9.690;2023-09-30T06:28:15;13.07;;;4.77;;
64633;SDS011;51043;52.406;9.690;2023-09-30T06:30:43;20.10;;;4.87;;
64633;SDS011;51043;52.406;9.690;2023-09-30T06:33:17;19.13;;;5.00;;
64633;SDS011;51043;52.406;9.690;2023-09-30T06:35:45;19.37;;;5.10;;
64633;SDS011;51043;52.406;9.690;2023-09-30T06:38:18;17.43;;;4.90;;
64633;SDS011;51043;52.406;9.690;2023-09-30T06:40:46;15.03;;;4.93;;
64633;SDS011;51043;52.406;9.690;2023-09-30T06:43:17;17.23;;;5.17;;
64633;SDS011;51043;52.406;9.690;2023-09-30T06:45:46;17.50;;;4.57;;
64633;SDS011;51043;52.406;9.690;2023-09-30T06:48:15;16.13;;;4.67;;
64633;SDS011;51043;52.406;9.690;2023-09-30T06:50:46;16.17;;;4.13;;
64633;SDS011;51043;52.406;9.690;2023-09-30T06:53:15;13.37;;;4.30;;
64633;SDS011;51043;52.406;9.690;2023-09-30T06:55:44;15.27;;;4.30;;
64633;SDS011;51043;52.406;9.690;2023-09-30T06:58:20;18.47;;;4.57;;
64633;SDS011;51043;52.406;9.690;2023-09-30T07:00:49;12.38;;;4.05;;
64633;SDS011;51043;52.406;9.690;2023-09-30T07:03:18;12.82;;;4.07;;
64633;SDS011;51043;52.406;9.690;2023-09-30T07:05:49;13.90;;;4.22;;
64633;SDS011;51043;52.406;9.690;2023-09-30T07:08:18;12.40;;;3.67;;
64633;SDS011;51043;52.406;9.690;2023-09-30T07:10:49;10.93;;;3.78;;
64633;SDS011;51043;52.406;9.690;2023-09-30T07:13:20;14.30;;;3.90;;
64633;SDS011;51043;52.406;9.690;2023-09-30T07:15:49;13.55;;;4.28;;
64633;SDS011;51043;52.406;9.690;2023-09-30T07:18:18;12.88;;;4.20;;
64633;SDS011;51043;52.406;9.690;2023-09-30T07:20:47;11.25;;;3.88;;
64633;SDS011;51043;52.406;9.690;2023-09-30T07:23:19;13.15;;;4.20;;
64633;SDS011;51043;52.406;9.690;2023-09-30T07:25:52;12.18;;;3.60;;
64633;SDS011;51043;52.406;9.690;2023-09-30T07:28:22;11.45;;;3.80;;
64633;SDS011;51043;52.406;9.690;2023-09-30T07:30:50;12.35;;;4.43;;
64633;SDS011;51043;52.406;9.690;2023-09-30T07:33:19;10.82;;;3.90;;
64633;SDS011;51043;52.406;9.690;2023-09-30T07:35:50;15.02;;;3.83;;
64633;SDS011;51043;52.406;9.690;2023-09-30T07:38:22;14.52;;;4.40;;
64633;SDS011;51043;52.406;9.690;2023-09-30T07:40:55;10.82;;;3.80;;
64633;SDS011;51043;52.406;9.690;2023-09-30T07:43:25;13.05;;;4.30;;
64633;SDS011;51043;52.406;9.690;2023-09-30T07:45:53;12.82;;;4.10;;
64633;SDS011;51043;52.406;9.690;2023-09-30T07:48:23;12.07;;;3.70;;
64633;SDS011;51043;52.406;9.690;2023-09-30T07:50:52;13.30;;;3.75;;
64633;SDS011;51043;52.406;9.690;2023-09-30T07:53:24;11.25;;;3.83;;
64633;SDS011;51043;52.406;9.690;2023-09-30T07:55:52;12.80;;;4.35;;
64633;SDS011;51043;52.406;9.690;2023-09-30T07:58:21;10.35;;;3.50;;
64633;SDS011;51043;52.406;9.690;2023-09-30T08:00:57;15.40;;;3.80;;
64633;SDS011;51043;52.406;9.690;2023-09-30T08:03:26;13.15;;;3.97;;
64633;SDS011;51043;52.406;9.690;2023-09-30T08:05:55;11.90;;;3.60;;
64633;SDS011;51043;52.406;9.690;2023-09-30T08:08:27;14.77;;;3.95;;
64633;SDS011;51043;52.406;9.690;2023-09-30T08:10:59;10.32;;;3.60;;
64633;SDS011;51043;52.406;9.690;2023-09-30T08:13:31;10.60;;;3.70;;
64633;SDS011;51043;52.406;9.690;2023-09-30T08:16:04;10.10;;;3.30;;
64633;SDS011;51043;52.406;9.690;2023-09-30T08:18:33;13.25;;;4.25;;
64633;SDS011;51043;52.406;9.690;2023-09-30T08:21:02;10.60;;;4.00;;
64633;SDS011;51043;52.406;9.690;2023-09-30T08:23:33;12.52;;;3.40;;
64633;SDS011;51043;52.406;9.690;2023-09-30T08:26:02;9.25;;;3.13;;
64633;SDS011;51043;52.406;9.690;2023-09-30T08:28:32;9.38;;;3.90;;
64633;SDS011;51043;52.406;9.690;2023-09-30T08:31:03;9.32;;;3.22;;
64633;SDS011;51043;52.406;9.690;2023-09-30T08:33:34;12.05;;;3.22;;
64633;SDS011;51043;52.406;9.690;2023-09-30T08:36:03;12.50;;;3.38;;
64633;SDS011;51043;52.406;9.690;2023-09-30T08:38:34;10.32;;;3.58;;
64633;SDS011;51043;52.406;9.690;2023-09-30T08:41:03;15.40;;;3.80;;
64633;SDS011;51043;52.406;9.690;2023-09-30T08:43:37;9.13;;;3.42;;
64633;SDS011;51043;52.406;9.690;2023-09-30T08:46:11;12.77;;;3.42;;
64633;SDS011;51043;52.406;9.690;2023-09-30T08:48:41;9.52;;;3.35;;
64633;SDS011;51043;52.406;9.690;2023-09-30T08:51:09;10.48;;;3.95;;
64633;SDS011;51043;52.406;9.690;2023-09-30T08:53:38;15.05;;;3.95;;
64633;SDS011;51043;52.406;9.690;2023-09-30T08:56:08;8.65;;;3.25;;
64633;SDS011;51043;52.406;9.690;2023-09-30T08:58:38;10.68;;;3.70;;
64633;SDS011;51043;52.406;9.690;2023-09-30T09:01:07;10.90;;;3.65;;
64633;SDS011;51043;52.406;9.690;2023-09-30T09:03:39;11.60;;;3.70;;
64633;SDS011;51043;52.406;9.690;2023-09-30T09:06:18;7.75;;;3.13;;
64633;SDS011;51043;52.406;9.690;2023-09-30T09:08:53;14.95;;;3.58;;
64633;SDS011;51043;52.406;9.690;2023-09-30T09:11:21;10.38;;;3.53;;
64633;SDS011;51043;52.406;9.690;2023-09-30T09:13:52;10.02;;;3.40;;
64633;SDS011;51043;52.406;9.690;2023-09-30T09:16:25;10.95;;;3.60;;
64633;SDS011;51043;52.406;9.690;2023-09-30T09:18:54;10.55;;;3.35;;
64633;SDS011;51043;52.406;9.690;2023-09-30T09:21:23;8.85;;;3.10;;
64633;SDS011;51043;52.406;9.690;2023-09-30T09:23:53;8.93;;;3.25;;
64633;SDS011;51043;52.406;9.690;2023-09-30T09:26:26;9.88;;;3.70;;
64633;SDS011;51043;52.406;9.690;2023-09-30T09:28:58;9.45;;;3.28;;
64633;SDS011;51043;52.406;9.690;2023-09-30T09:31:31;11.00;;;3.45;;
64633;SDS011;51043;52.406;9.690;2023-09-30T09:34:02;9.85;;;3.20;;
64633;SDS011;51043;52.406;9.690;2023-09-30T09:36:37;12.68;;;3.65;;
64633;SDS011;51043;52.406;9.690;2023-09-30T09:39:07;10.77;;;3.13;;
64633;SDS011;51043;52.406;9.690;2023-09-30T09:41:54;10.57;;;3.60;;
64633;SDS011;51043;52.406;9.690;2023-09-30T09:44:24;11.18;;;3.50;;
64633;SDS011;51043;52.406;9.690;2023-09-30T09:46:58;12.73;;;3.85;;
64633;SDS011;51043;52.406;9.690;2023-09-30T09:49:33;8.77;;;3.65;;
64633;SDS011;51043;52.406;9.690;2023-09-30T09:52:02;9.70;;;3.58;;
64633;SDS011;51043;52.406;9.690;2023-09-30T09:54:31;13.05;;;3.65;;
64633;SDS011;51043;52.406;9.690;2023-09-30T09:57:04;10.80;;;3.45;;
64633;SDS011;51043;52.406;9.690;2023-09-30T09:59:37;8.93;;;3.22;;
64633;SDS011;51043;52.406;9.690;2023-09-30T10:02:10;10.38;;;3.28;;
64633;SDS011;51043;52.406;9.690;2023-09-30T10:04:46;8.70;;;3.00;;
64633;SDS011;51043;52.406;9.690;2023-09-30T10:07:19;10.25;;;3.70;;
64633;SDS011;51043;52.406;9.690;2023-09-30T10:09:50;6.20;;;2.78;;
64633;SDS011;51043;52.406;9.690;2023-09-30T10:12:20;9.18;;;2.92;;
64633;SDS011;51043;52.406;9.690;2023-09-30T10:14:52;7.95;;;3.35;;
64633;SDS011;51043;52.406;9.690;2023-09-30T10:17:21;9.20;;;3.17;;
64633;SDS011;51043;52.406;9.690;2023-09-30T10:20:28;8.07;;;3.10;;
64633;SDS011;51043;52.406;9.690;2023-09-30T10:25:52;12.00;;;3.33;;
64633;SDS011;51043;52.406;9.690;2023-09-30T10:28:37;6.80;;;2.65;;
64633;SDS011;51043;52.406;9.690;2023-09-30T10:31:12;6.40;;;2.38;;
64633;SDS011;51043;52.406;9.690;2023-09-30T10:36:51;11.45;;;3.25;;
64633;SDS011;51043;52.406;9.690;2023-09-30T10:51:10;7.65;;;2.35;;
64633;SDS011;51043;52.406;9.690;2023-09-30T10:53:53;7.93;;;2.80;;
64633;SDS011;51043;52.406;9.690;2023-09-30T10:56:23;9.00;;;2.92;;
64633;SDS011;51043;52.406;9.690;2023-09-30T10:58:59;7.78;;;2.83;;
64633;SDS011;51043;52.406;9.690;2023-09-30T11:01:31;7.57;;;2.95;;
64633;SDS011;51043;52.406;9.690;2023-09-30T11:04:01;10.05;;;2.95;;
64633;SDS011;51043;52.406;9.690;2023-09-30T11:06:32;8.35;;;2.90;;
64633;SDS011;51043;52.406;9.690;2023-09-30T11:09:01;7.57;;;2.85;;
64633;SDS011;51043;52.406;9.690;2023-09-30T11:11:36;11.02;;;2.65;;
64633;SDS011;51043;52.406;9.690;2023-09-30T11:14:17;5.25;;;2.08;;
64633;SDS011;51043;52.406;9.690;2023-09-30T11:16:49;5.03;;;2.45;;
64633;SDS011;51043;52.406;9.690;2023-09-30T11:19:23;7.43;;;2.45;;
64633;SDS011;51043;52.406;9.690;2023-09-30T11:21:52;6.65;;;2.47;;
64633;SDS011;51043;52.406;9.690;2023-09-30T11:24:23;6.68;;;2.45;;
64633;SDS011;51043;52.406;9.690;2023-09-30T11:26:55;7.30;;;3.03;;
64633;SDS011;51043;52.406;9.690;2023-09-30T11:29:23;7.82;;;2.55;;
64633;SDS011;51043;52.406;9.690;2023-09-30T11:31:54;6.32;;;2.42;;
64633;SDS011;51043;52.406;9.690;2023-09-30T11:34:30;7.30;;;2.42;;
64633;SDS011;51043;52.406;9.690;2023-09-30T11:37:00;3.60;;;1.65;;
64633;SDS011;51043;52.406;9.690;2023-09-30T11:39:30;8.95;;;2.40;;
64633;SDS011;51043;52.406;9.690;2023-09-30T11:42:00;9.63;;;2.78;;
64633;SDS011;51043;52.406;9.690;2023-09-30T11:44:29;3.47;;;2.03;;
64633;SDS011;51043;52.406;9.690;2023-09-30T11:47:00;4.97;;;2.10;;
64633;SDS011;51043;52.406;9.690;2023-09-30T11:49:35;6.30;;;2.30;;
64633;SDS011;51043;52.406;9.690;2023-09-30T11:52:06;9.55;;;2.55;;
64633;SDS011;51043;52.406;9.690;2023-09-30T11:54:43;5.93;;;2.55;;
64633;SDS011;51043;52.406;9.690;2023-09-30T11:57:19;5.22;;;2.45;;
64633;SDS011;51043;52.406;9.690;2023-09-30T11:59:48;6.05;;;2.45;;
64633;SDS011;51043;52.406;9.690;2023-09-30T12:02:20;8.77;;;2.67;;
64633;SDS011;51043;52.406;9.690;2023-09-30T12:04:52;9.27;;;2.45;;
64633;SDS011;51043;52.406;9.690;2023-09-30T12:07:20;6.35;;;2.42;;
64633;SDS011;51043;52.406;9.690;2023-09-30T12:09:50;8.73;;;2.83;;
64633;SDS011;51043;52.406;9.690;2023-09-30T12:12:22;7.10;;;2.60;;
64633;SDS011;51043;52.406;9.690;2023-09-30T12:14:50;6.07;;;2.22;;
64633;SDS011;51043;52.406;9.690;2023-09-30T12:17:21;7.50;;;2.80;;
64633;SDS011;51043;52.406;9.690;2023-09-30T12:19:54;8.25;;;2.67;;
64633;SDS011;51043;52.406;9.690;2023-09-30T12:22:22;6.90;;;2.42;;
64633;SDS011;51043;52.406;9.690;2023-09-30T12:24:56;8.57;;;3.03;;
64633;SDS011;51043;52.406;9.690;2023-09-30T12:27:24;7.68;;;2.65;;
64633;SDS011;51043;52.406;9.690;2023-09-30T12:29:52;4.18;;;2.00;;
64633;SDS011;51043;52.406;9.690;2023-09-30T12:32:21;6.13;;;2.30;;
64633;SDS011;51043;52.406;9.690;2023-09-30T12:34:53;5.53;;;2.63;;
64633;SDS011;51043;52.406;9.690;2023-09-30T12:37:22;6.78;;;2.58;;
64633;SDS011;51043;52.406;9.690;2023-09-30T12:39:56;5.05;;;2.28;;
64633;SDS011;51043;52.406;9.690;2023-09-30T12:42:28;6.97;;;2.50;;
64633;SDS011;51043;52.406;9.690;2023-09-30T12:44:59;7.95;;;2.85;;
64633;SDS011;51043;52.406;9.690;2023-09-30T12:47:28;10.18;;;2.63;;
64633;SDS011;51043;52.406;9.690;2023-09-30T12:49:56;7.20;;;2.83;;
64633;SDS011;51043;52.406;9.690;2023-09-30T12:52:28;7.47;;;2.60;;
64633;SDS011;51043;52.406;9.690;2023-09-30T12:55:02;11.70;;;2.97;;
64633;SDS011;51043;52.406;9.690;2023-09-30T12:57:31;11.27;;;2.83;;
64633;SDS011;51043;52.406;9.690;2023-09-30T13:00:02;7.13;;;2.90;;
64633;SDS011;51043;52.406;9.690;2023-09-30T13:02:36;6.05;;;2.60;;
64633;SDS011;51043;52.406;9.690;2023-09-30T13:05:05;7.43;;;2.88;;
64633;SDS011;51043;52.406;9.690;2023-09-30T13:07:34;6.65;;;2.67;;
64633;SDS011;51043;52.406;9.690;2023-09-30T13:10:07;9.43;;;2.95;;
64633;SDS011;51043;52.406;9.690;2023-09-30T13:12:36;8.65;;;2.95;;
64633;SDS011;51043;52.406;9.690;2023-09-30T13:15:05;7.25;;;2.47;;
64633;SDS011;51043;52.406;9.690;2023-09-30T13:17:35;10.93;;;3.40;;
64633;SDS011;51043;52.406;9.690;2023-09-30T13:20:04;8.02;;;3.10;;
64633;SDS011;51043;52.406;9.690;2023-09-30T13:22:44;9.43;;;2.67;;
64633;SDS011;51043;52.406;9.690;2023-09-30T13:25:15;7.43;;;3.10;;
64633;SDS011;51043;52.406;9.690;2023-09-30T13:27:44;5.95;;;2.63;;
64633;SDS011;51043;52.406;9.690;2023-09-30T13:30:13;10.20;;;3.28;;
64633;SDS011;51043;52.406;9.690;2023-09-30T13:32:49;12.02;;;3.10;;
64633;SDS011;51043;52.406;9.690;2023-09-30T13:35:20;7.95;;;3.00;;
64633;SDS011;51043;52.406;9.690;2023-09-30T13:37:49;7.93;;;3.05;;
64633;SDS011;51043;52.406;9.690;2023-09-30T13:40:28;8.30;;;3.00;;
64633;SDS011;51043;52.406;9.690;2023-09-30T13:42:57;9.25;;;2.80;;
64633;SDS011;51043;52.406;9.690;2023-09-30T13:45:26;4.68;;;2.20;;
64633;SDS011;51043;52.406;9.690;2023-09-30T13:47:55;7.05;;;2.83;;
64633;SDS011;51043;52.406;9.690;2023-09-30T13:50:23;7.47;;;3.05;;
64633;SDS011;51043;52.406;9.690;2023-09-30T13:55:49;6.85;;;2.80;;
64633;SDS011;51043;52.406;9.690;2023-09-30T13:58:20;9.60;;;3.00;;
64633;SDS011;51043;52.406;9.690;2023-09-30T14:00:49;9.05;;;3.22;;
64633;SDS011;51043;52.406;9.690;2023-09-30T14:03:20;8.57;;;3.08;;
64633;SDS011;51043;52.406;9.690;2023-09-30T14:05:50;8.20;;;2.83;;
64633;SDS011;51043;52.406;9.690;2023-09-30T14:08:23;6.47;;;2.47;;
64633;SDS011;51043;52.406;9.690;2023-09-30T14:10:56;6.10;;;2.75;;
64633;SDS011;51043;52.406;9.690;2023-09-30T14:13:24;6.18;;;2.55;;
64633;SDS011;51043;52.406;9.690;2023-09-30T14:15:55;4.28;;;2.38;;
64633;SDS011;51043;52.406;9.690;2023-09-30T14:18:24;7.57;;;2.58;;
64633;SDS011;51043;52.406;9.690;2023-09-30T14:20:55;8.05;;;2.80;;
64633;SDS011;51043;52.406;9.690;2023-09-30T14:23:23;6.70;;;2.70;;
64633;SDS011;51043;52.406;9.690;2023-09-30T14:25:56;7.63;;;3.08;;
64633;SDS011;51043;52.406;9.690;2023-09-30T14:28:26;7.35;;;2.60;;
64633;SDS011;51043;52.406;9.690;2023-09-30T14:30:55;7.47;;;2.55;;
64633;SDS011;51043;52.406;9.690;2023-09-30T14:33:27;10.15;;;2.85;;
64633;SDS011;51043;52.406;9.690;2023-09-30T14:36:01;6.45;;;2.70;;
64633;SDS011;51043;52.406;9.690;2023-09-30T14:38:33;10.68;;;3.55;;
64633;SDS011;51043;52.406;9.690;2023-09-30T14:41:07;10.00;;;2.83;;
64633;SDS011;51043;52.406;9.690;2023-09-30T14:43:36;10.45;;;2.60;;
64633;SDS011;51043;52.406;9.690;2023-09-30T14:46:05;6.57;;;2.70;;
64633;SDS011;51043;52.406;9.690;2023-09-30T14:48:34;6.47;;;2.97;;
64633;SDS011;51043;52.406;9.690;2023-09-30T14:51:03;7.40;;;3.13;;
64633;SDS011;51043;52.406;9.690;2023-09-30T14:53:32;5.00;;;2.65;;
64633;SDS011;51043;52.406;9.690;2023-09-30T14:56:01;6.75;;;2.58;;
64633;SDS011;51043;52.406;9.690;2023-09-30T14:58:34;7.28;;;2.60;;
64633;SDS011;51043;52.406;9.690;2023-09-30T15:01:07;7.03;;;3.17;;
64633;SDS011;51043;52.406;9.690;2023-09-30T15:03:36;7.70;;;2.78;;
64633;SDS011;51043;52.406;9.690;2023-09-30T15:06:05;8.90;;;2.83;;
64633;SDS011;51043;52.406;9.690;2023-09-30T15:08:40;10.30;;;3.05;;
64633;SDS011;51043;52.406;9.690;2023-09-30T15:11:12;8.80;;;3.47;;
64633;SDS011;51043;52.406;9.690;2023-09-30T15:13:47;8.18;;;3.10;;
64633;SDS011;51043;52.406;9.690;2023-09-30T15:16:17;10.20;;;2.80;;
64633;SDS011;51043;52.406;9.690;2023-09-30T15:18:47;5.72;;;2.90;;
64633;SDS011;51043;52.406;9.690;2023-09-30T15:21:16;10.80;;;3.30;;